Time;durP1;ratioP1;P1;durP2;ratioP2;P2;SDS_P1;SDS_P2;PMS_P1;PMS_P2;Temp;Humidity;BMP_temperature;BMP_pressure;BME280_temperature;BME280_humidity;BME280_pressure;Samples;Min_cycle;Max_cycle;Signal;HPM_P1;HPM_P2
2020/12/21 00:00:22;;;;;;;12.27;6.35;;;;;;;3.68;76.98;94507.34;4974979;28;20070;-48
2020/12/21 00:02:48;;;;;;;11.82;6.25;;;;;;;3.72;77.13;94496.22;4975083;28;20073;-49
2020/12/21 00:05:13;;;;;;;13.80;6.32;;;;;;;3.68;77.02;94495.69;4974350;28;20049;-44
2020/12/21 00:07:39;;;;;;;11.68;7.75;;;;;;;3.68;77.04;94504.63;4974925;28;20030;-46
2020/12/21 00:10:06;;;;;;;15.32;7.38;;;;;;;3.65;76.75;94497.41;4974493;28;20041;-44
2020/12/21 00:12:32;;;;;;;25.90;11.90;;;;;;;3.60;76.84;94484.41;4972938;28;20022;-49
2020/12/21 00:14:58;;;;;;;20.20;10.30;;;;;;;3.74;76.26;94494.53;4972510;28;20034;-44
2020/12/21 00:17:23;;;;;;;16.98;9.77;;;;;;;3.77;76.07;94492.78;4972172;28;20415;-46
2020/12/21 00:19:49;;;;;;;18.67;8.20;;;;;;;3.78;76.39;94492.34;4972569;28;20021;-46
2020/12/21 00:22:16;;;;;;;15.13;6.68;;;;;;;3.71;76.28;94492.00;4972680;28;20022;-45
2020/12/21 00:24:42;;;;;;;14.82;6.60;;;;;;;3.75;76.17;94489.78;4972773;28;20042;-46
2020/12/21 00:27:07;;;;;;;14.25;7.63;;;;;;;3.68;76.41;94490.97;4973763;28;20023;-46
2020/12/21 00:29:33;;;;;;;14.85;7.18;;;;;;;3.79;76.20;94495.78;4974732;28;20494;-43
2020/12/21 00:31:58;;;;;;;25.70;12.77;;;;;;;3.87;75.85;94482.47;4974525;28;20097;-47
2020/12/21 00:34:23;;;;;;;15.68;7.63;;;;;;;3.77;76.19;94492.78;4957066;28;20567;-45
2020/12/21 00:36:50;;;;;;;20.08;9.25;;;;;;;3.73;76.60;94486.78;4974126;28;20054;-46
2020/12/21 00:39:16;;;;;;;17.00;9.88;;;;;;;3.72;76.70;94493.50;4974185;28;20102;-41
2020/12/21 00:41:43;;;;;;;16.00;7.65;;;;;;;3.65;76.83;94497.41;4974309;28;20018;-45
2020/12/21 00:44:08;;;;;;;17.10;7.80;;;;;;;3.62;77.10;94492.13;4974323;28;20097;-45
2020/12/21 00:46:35;;;;;;;12.25;8.05;;;;;;;3.69;76.31;94484.28;4974171;28;20051;-43
2020/12/21 00:49:01;;;;;;;22.80;11.27;;;;;;;3.73;76.34;94482.09;4974189;28;20097;-43
2020/12/21 00:51:27;;;;;;;11.80;5.50;;;;;;;3.74;76.06;94480.88;4973762;28;20562;-41
2020/12/21 00:53:53;;;;;;;8.55;4.60;;;;;;;3.76;75.58;94485.84;4973600;28;20111;-41
2020/12/21 00:56:19;;;;;;;9.20;4.82;;;;;;;3.70;75.66;94487.78;4973609;28;20015;-45
2020/12/21 00:58:45;;;;;;;10.25;4.82;;;;;;;3.68;75.59;94487.50;4973312;28;20047;-42
2020/12/21 01:01:20;;;;;;;10.93;6.10;;;;;;;3.68;76.20;94476.56;4973597;28;20046;-41
2020/12/21 01:03:45;;;;;;;11.85;6.43;;;;;;;3.71;75.82;94479.09;4973291;28;20026;-44
2020/12/21 01:06:12;;;;;;;13.43;7.70;;;;;;;3.68;75.86;94480.03;4973423;28;20106;-48
2020/12/21 01:08:37;;;;;;;14.60;8.52;;;;;;;3.68;75.73;94480.03;4973205;28;20014;-49
2020/12/21 01:11:09;;;;;;;14.68;7.45;;;;;;;3.68;75.75;94463.66;4973108;28;20026;-50
2020/12/21 01:13:35;;;;;;;11.85;5.63;;;;;;;3.72;75.66;94468.91;4973220;28;20033;-53
2020/12/21 01:16:00;;;;;;;11.80;6.03;;;;;;;3.66;76.21;94476.31;4972834;28;20503;-49
2020/12/21 01:18:27;;;;;;;11.55;6.07;;;;;;;3.68;76.31;94480.03;4972874;28;20568;-51
2020/12/21 01:20:52;;;;;;;28.23;12.30;;;;;;;3.66;76.44;94470.84;4973156;28;20029;-52
2020/12/21 01:23:17;;;;;;;46.88;20.40;;;;;;;3.55;77.31;94476.16;4973429;28;20101;-52
2020/12/21 01:25:43;;;;;;;27.70;14.43;;;;;;;3.60;77.27;94473.50;4973457;28;20066;-51
2020/12/21 01:28:08;;;;;;;26.95;13.95;;;;;;;3.57;77.41;94470.97;4973499;28;20030;-48
2020/12/21 01:30:34;;;;;;;29.67;15.18;;;;;;;3.61;77.80;94480.47;4973375;28;20026;-45
2020/12/21 01:32:59;;;;;;;26.63;14.35;;;;;;;3.58;77.71;94472.47;4973264;28;20019;-50
2020/12/21 01:35:25;;;;;;;25.17;13.80;;;;;;;3.66;77.62;94479.03;4973193;28;20074;-47
2020/12/21 01:37:50;;;;;;;24.52;11.60;;;;;;;3.73;77.39;94470.41;4973506;28;20034;-49
2020/12/21 01:40:16;;;;;;;40.95;19.48;;;;;;;3.73;77.12;94470.41;4972340;28;20023;-48
2020/12/21 01:42:41;;;;;;;20.75;10.40;;;;;;;3.68;77.47;94473.84;4973234;28;20423;-48
2020/12/21 01:45:08;;;;;;;13.27;8.68;;;;;;;3.69;77.45;94472.59;4973355;28;20041;-45
2020/12/21 01:47:34;;;;;;;19.05;8.63;;;;;;;3.67;77.29;94483.25;4972991;28;20065;-46
2020/12/21 01:50:00;;;;;;;18.67;8.40;;;;;;;3.70;77.34;94483.03;4973062;28;20022;-48
2020/12/21 01:52:26;;;;;;;14.63;7.13;;;;;;;3.75;76.86;94485.09;4973016;28;20465;-45
2020/12/21 01:54:51;;;;;;;14.93;7.05;;;;;;;3.67;77.06;94481.28;4973067;28;20033;-42
2020/12/21 01:57:17;;;;;;;10.27;5.75;;;;;;;3.64;76.88;94487.69;4973067;28;20415;-44
2020/12/21 01:59:42;;;;;;;8.02;3.38;;;;;;;3.56;76.49;94481.16;4972930;28;20428;-44
2020/12/21 02:02:09;;;;;;;6.15;2.75;;;;;;;3.55;76.48;94481.63;4972852;28;20487;-46
2020/12/21 02:04:35;;;;;;;4.03;2.63;;;;;;;3.57;76.24;94476.44;4972798;28;20035;-44
2020/12/21 02:07:01;;;;;;;3.83;2.50;;;;;;;3.50;76.53;94474.13;4972858;28;20031;-43
2020/12/21 02:09:27;;;;;;;4.90;2.72;;;;;;;3.46;76.73;94476.31;4972670;28;20480;-41
2020/12/21 02:11:54;;;;;;;5.88;2.90;;;;;;;3.51;76.44;94486.56;4972685;28;20030;-44
2020/12/21 02:14:20;;;;;;;9.15;4.55;;;;;;;3.51;76.41;94484.56;4972907;28;20097;-45
2020/12/21 02:16:45;;;;;;;30.10;10.50;;;;;;;3.50;76.43;94487.75;4972771;28;20503;-46
2020/12/21 02:19:11;;;;;;;11.15;5.72;;;;;;;3.50;75.99;94483.06;4972674;28;20026;-41
2020/12/21 02:21:36;;;;;;;3.97;2.97;;;;;;;3.43;76.25;94475.28;4972619;28;20033;-42
2020/12/21 02:24:02;;;;;;;9.75;3.75;;;;;;;3.42;76.48;94481.94;4972537;28;20025;-43
2020/12/21 02:26:27;;;;;;;6.40;3.20;;;;;;;3.39;75.98;94474.72;4972720;28;20031;-44
2020/12/21 02:28:55;;;;;;;4.38;2.35;;;;;;;3.30;76.17;94474.84;4972513;28;20486;-48
2020/12/21 02:31:20;;;;;;;6.50;2.83;;;;;;;3.36;76.48;94475.69;4972557;28;20031;-46
2020/12/21 02:33:46;;;;;;;3.10;1.90;;;;;;;3.35;75.92;94463.28;4972484;28;20062;-45
2020/12/21 02:36:12;;;;;;;3.72;1.83;;;;;;;3.35;75.79;94478.88;4972646;28;20114;-46
2020/12/21 02:38:38;;;;;;;6.55;2.65;;;;;;;3.22;75.75;94462.84;4972284;28;20106;-46
2020/12/21 02:41:04;;;;;;;3.85;2.10;;;;;;;3.36;76.44;94478.41;4972574;28;20665;-48
2020/12/21 02:43:29;;;;;;;9.30;3.90;;;;;;;3.38;76.72;94478.69;4972641;28;20110;-47
2020/12/21 02:45:55;;;;;;;6.18;2.90;;;;;;;3.42;76.55;94468.31;4972314;28;20085;-47
2020/12/21 02:48:21;;;;;;;13.73;6.18;;;;;;;3.35;77.09;94465.25;4972396;28;20030;-48
2020/12/21 02:50:46;;;;;;;11.32;5.75;;;;;;;3.40;76.62;94464.56;4973363;28;20039;-46
2020/12/21 02:53:14;;;;;;;10.25;5.63;;;;;;;3.44;76.61;94468.59;4976224;28;20031;-45
2020/12/21 02:55:39;;;;;;;6.85;2.42;;;;;;;3.27;76.39;94469.63;4975972;28;20069;-48
2020/12/21 02:58:05;;;;;;;12.95;5.05;;;;;;;3.30;76.47;94466.66;4976192;28;20054;-43
2020/12/21 03:00:30;;;;;;;10.57;5.47;;;;;;;3.21;77.02;94468.78;4976253;28;20502;-45
2020/12/21 03:02:55;;;;;;;7.00;3.75;;;;;;;3.21;77.04;94469.53;4976069;28;20468;-45
2020/12/21 03:05:21;;;;;;;7.40;3.72;;;;;;;3.26;76.64;94470.81;4976217;28;20030;-48
2020/12/21 03:07:46;;;;;;;5.90;3.47;;;;;;;3.25;77.07;94477.53;4976094;28;20022;-43
2020/12/21 03:10:12;;;;;;;3.88;2.60;;;;;;;3.30;76.31;94479.56;4975940;28;20134;-44
2020/12/21 03:12:37;;;;;;;3.97;3.20;;;;;;;3.16;77.01;94469.47;4976066;28;20058;-38
2020/12/21 03:15:03;;;;;;;7.20;3.95;;;;;;;3.30;77.12;94471.38;4975938;28;20500;-39
2020/12/21 03:17:28;;;;;;;6.63;3.15;;;;;;;3.20;76.96;94472.75;4975807;28;20019;-39
2020/12/21 03:19:54;;;;;;;3.05;2.22;;;;;;;2.99;77.58;94475.44;4975802;28;20385;-38
2020/12/21 03:22:19;;;;;;;2.50;1.77;;;;;;;2.90;77.72;94480.28;4975703;28;20035;-39
2020/12/21 03:24:46;;;;;;;13.10;4.30;;;;;;;2.97;77.78;94477.13;4975825;28;20023;-38
2020/12/21 03:27:12;;;;;;;10.32;4.18;;;;;;;3.08;78.01;94472.59;4974806;28;20031;-39
2020/12/21 03:29:37;;;;;;;7.35;4.07;;;;;;;3.19;77.12;94479.41;4975685;28;20680;-39
2020/12/21 03:32:03;;;;;;;5.40;3.03;;;;;;;3.24;76.83;94476.78;4974053;28;20078;-42
2020/12/21 03:34:28;;;;;;;4.93;3.08;;;;;;;3.21;76.44;94474.97;4973581;28;20025;-42
2020/12/21 03:36:53;;;;;;;8.63;3.25;;;;;;;3.18;76.53;94473.22;4973600;28;20023;-44
2020/12/21 03:39:19;;;;;;;3.28;2.75;;;;;;;3.12;76.70;94477.84;4973393;28;20026;-42
2020/12/21 03:41:44;;;;;;;2.42;1.77;;;;;;;3.16;76.75;94474.91;4973596;28;20559;-41
2020/12/21 03:44:10;;;;;;;4.53;2.83;;;;;;;3.26;76.51;94473.56;4974531;28;20031;-42
2020/12/21 03:46:35;;;;;;;5.15;1.88;;;;;;;3.32;76.17;94472.41;4974709;28;20055;-40
2020/12/21 03:49:00;;;;;;;3.30;2.08;;;;;;;3.35;76.05;94473.44;4975486;28;20011;-43
2020/12/21 03:51:26;;;;;;;2.50;1.80;;;;;;;3.31;76.23;94467.44;4975379;28;20026;-41
2020/12/21 03:53:51;;;;;;;3.40;2.25;;;;;;;3.33;75.94;94465.72;4975343;28;20025;-39
2020/12/21 03:56:17;;;;;;;6.82;3.10;;;;;;;3.24;76.42;94462.38;4975178;28;20499;-41
2020/12/21 03:58:42;;;;;;;6.20;3.03;;;;;;;3.28;76.51;94458.22;4975105;28;20024;-41
2020/12/21 04:01:07;;;;;;;4.95;2.85;;;;;;;3.21;76.00;94463.31;4975062;28;20027;-42
2020/12/21 04:03:33;;;;;;;6.45;3.40;;;;;;;3.23;76.73;94472.53;4973978;28;20031;-44
2020/12/21 04:05:58;;;;;;;4.05;2.53;;;;;;;3.20;76.55;94472.75;4975223;28;20030;-45
2020/12/21 04:08:24;;;;;;;4.55;2.45;;;;;;;3.03;77.11;94470.53;4974978;28;20058;-43
2020/12/21 04:10:49;;;;;;;6.95;3.22;;;;;;;3.04;77.31;94466.59;4975052;28;20535;-41
2020/12/21 04:13:16;;;;;;;9.27;4.20;;;;;;;3.04;77.42;94474.75;4974875;28;20046;-42
2020/12/21 04:15:41;;;;;;;9.80;5.22;;;;;;;2.93;76.99;94465.66;4974788;28;20022;-41
2020/12/21 04:18:07;;;;;;;5.75;2.95;;;;;;;2.92;77.62;94473.09;4974650;28;20025;-48
2020/12/21 04:20:32;;;;;;;5.35;3.40;;;;;;;2.89;77.77;94476.78;4974581;28;20023;-42
2020/12/21 04:22:58;;;;;;;3.25;2.13;;;;;;;2.92;78.00;94472.34;4974705;28;20054;-47
2020/12/21 04:25:24;;;;;;;3.25;1.80;;;;;;;3.05;77.48;94470.06;4974452;28;20113;-44
2020/12/21 04:27:49;;;;;;;3.08;2.00;;;;;;;3.16;76.66;94462.03;4974488;28;20507;-45
2020/12/21 04:30:15;;;;;;;5.28;3.53;;;;;;;3.11;76.58;94454.50;4974716;28;20029;-43
2020/12/21 04:32:40;;;;;;;5.78;3.10;;;;;;;2.87;76.89;94448.47;4974554;28;20065;-43
2020/12/21 04:35:06;;;;;;;4.13;2.38;;;;;;;2.80;77.23;94443.41;4974653;28;20110;-44
2020/12/21 04:37:33;;;;;;;5.35;2.40;;;;;;;2.96;76.97;94454.56;4974562;28;20079;-42
2020/12/21 04:39:58;;;;;;;4.35;2.47;;;;;;;3.06;76.52;94453.22;4974429;28;20054;-44
2020/12/21 04:42:24;;;;;;;5.15;3.60;;;;;;;3.13;76.76;94454.03;4974342;28;20457;-43
2020/12/21 04:44:51;;;;;;;6.35;3.58;;;;;;;3.12;76.61;94455.28;4974342;28;20030;-44
2020/12/21 04:47:17;;;;;;;12.57;6.38;;;;;;;3.03;76.97;94458.88;4973906;28;20050;-46
2020/12/21 04:49:44;;;;;;;12.85;7.07;;;;;;;2.96;77.48;94448.34;4974108;28;20027;-47
2020/12/21 04:52:10;;;;;;;5.30;3.05;;;;;;;3.05;77.46;94456.44;4974235;28;20162;-47
2020/12/21 04:54:36;;;;;;;4.05;2.55;;;;;;;3.01;76.93;94451.16;4974069;28;20027;-50
2020/12/21 04:57:01;;;;;;;9.40;2.05;;;;;;;3.05;77.28;94448.97;4956965;28;20391;-45
2020/12/21 04:59:27;;;;;;;5.75;1.90;;;;;;;3.04;77.07;94447.47;4974054;28;20033;-42
2020/12/21 05:01:55;;;;;;;3.10;2.00;;;;;;;2.87;77.66;94451.22;4972351;28;20541;-44
2020/12/21 05:04:24;;;;;;;1.65;1.38;;;;;;;2.95;77.42;94460.47;4973803;28;20029;-45
2020/12/21 05:06:54;;;;;;;2.33;1.67;;;;;;;3.01;76.97;94459.34;4974001;28;20046;-49
2020/12/21 05:09:26;;;;;;;18.10;8.55;;;;;;;2.94;77.12;94461.72;4973938;28;20471;-41
2020/12/21 05:12:05;;;;;;;16.35;8.48;;;;;;;3.08;76.47;94458.19;4973636;28;20027;-46
2020/12/21 05:14:35;;;;;;;18.30;10.85;;;;;;;3.05;76.95;94467.34;4973608;28;20042;-48
2020/12/21 05:17:11;;;;;;;11.05;6.88;;;;;;;3.05;76.54;94465.34;4973789;28;20031;-43
2020/12/21 05:19:37;;;;;;;16.02;10.25;;;;;;;3.08;76.66;94466.38;4973519;28;20029;-43
2020/12/21 05:22:02;;;;;;;8.45;5.13;;;;;;;2.99;76.76;94474.66;4973456;28;20026;-41
2020/12/21 05:24:28;;;;;;;10.95;6.10;;;;;;;2.91;76.65;94463.41;4973485;28;20099;-42
2020/12/21 05:26:54;;;;;;;16.85;8.75;;;;;;;2.93;76.82;94462.94;4973538;28;20034;-42
2020/12/21 05:29:26;;;;;;;12.07;7.88;;;;;;;2.86;76.32;94455.91;4973504;28;20078;-47
2020/12/21 05:31:52;;;;;;;9.00;5.55;;;;;;;2.91;76.82;94474.34;4973537;28;20018;-47
2020/12/21 05:34:27;;;;;;;5.60;4.50;;;;;;;3.04;76.32;94466.59;4973488;28;20037;-45
2020/12/21 05:36:53;;;;;;;8.30;4.55;;;;;;;3.06;75.98;94469.59;4973276;28;20054;-47
2020/12/21 05:39:18;;;;;;;5.50;3.78;;;;;;;3.11;75.86;94472.84;4973144;28;20477;-42
2020/12/21 05:41:44;;;;;;;4.68;3.25;;;;;;;3.07;76.33;94481.97;4974083;28;20030;-43
2020/12/21 05:44:09;;;;;;;6.50;3.42;;;;;;;3.08;76.17;94474.56;4966401;28;20038;-41
2020/12/21 05:46:35;;;;;;;4.15;3.22;;;;;;;3.18;76.07;94475.19;4970241;28;20043;-44
2020/12/21 05:49:01;;;;;;;11.13;6.20;;;;;;;3.07;75.88;94489.44;4972589;28;20033;-43
2020/12/21 05:51:36;;;;;;;11.15;7.28;;;;;;;3.12;75.83;94488.75;4973142;28;20030;-44
2020/12/21 05:54:06;;;;;;;13.55;8.13;;;;;;;3.04;76.22;94482.94;4972812;28;20397;-44
2020/12/21 05:56:36;;;;;;;6.78;4.43;;;;;;;3.01;76.39;94477.69;4971540;28;20023;-44
2020/12/21 05:59:03;;;;;;;13.13;5.97;;;;;;;3.05;76.30;94481.72;4952466;29;20511;-44
2020/12/21 06:01:28;;;;;;;66.68;28.17;;;;;;;2.78;76.34;94443.13;4952413;29;20033;-43
2020/12/21 06:04:01;;;;;;;40.22;18.98;;;;;;;2.91;76.80;94479.78;4970882;28;20114;-48
2020/12/21 06:06:29;;;;;;;102.10;39.38;;;;;;;3.01;77.42;94483.88;4971575;28;20113;-46
2020/12/21 06:08:57;;;;;;;19.80;10.13;;;;;;;2.98;76.62;94478.66;4959374;28;20022;-44
2020/12/21 06:11:29;;;;;;;17.40;8.27;;;;;;;3.04;76.38;94477.50;4971466;28;20381;-49
2020/12/21 06:13:59;;;;;;;10.52;5.75;;;;;;;3.06;76.90;94477.00;4971973;28;20031;-47
2020/12/21 06:16:28;;;;;;;8.13;5.88;;;;;;;3.03;76.53;94475.25;4930944;29;20029;-42
2020/12/21 06:19:04;;;;;;;12.70;7.47;;;;;;;2.98;77.06;94476.66;4931312;29;20527;-45
2020/12/21 06:21:35;;;;;;;10.05;5.75;;;;;;;2.98;77.25;94475.91;4948836;29;20027;-43
2020/12/21 06:24:00;;;;;;;7.63;3.70;;;;;;;3.05;76.78;94480.97;4947564;29;20034;-47
2020/12/21 06:26:33;;;;;;;3.83;3.40;;;;;;;3.08;76.62;94478.03;4947176;29;20448;-49
2020/12/21 06:29:04;;;;;;;12.68;8.18;;;;;;;3.00;76.80;94478.91;4948952;29;20035;-46
2020/12/21 06:32:03;;;;;;;17.45;10.15;;;;;;;3.03;77.48;94488.88;4966693;28;20034;-48
2020/12/21 06:34:29;;;;;;;7.28;4.85;;;;;;;3.05;76.73;94484.44;4960264;28;20050;-44
2020/12/21 06:37:11;;;;;;;8.52;6.18;;;;;;;2.95;77.02;94474.88;4951216;29;20027;-48
2020/12/21 06:39:39;;;;;;;8.55;6.60;;;;;;;3.06;76.81;94490.66;4952917;28;20027;-48
2020/12/21 06:42:06;;;;;;;7.32;5.95;;;;;;;3.12;76.44;94488.00;4971251;28;20019;-46
2020/12/21 06:44:33;;;;;;;15.25;7.47;;;;;;;3.26;75.99;94487.19;4968049;28;20039;-49
2020/12/21 06:46:59;;;;;;;9.13;5.68;;;;;;;3.28;76.28;94485.50;4971268;28;20043;-49
2020/12/21 06:49:25;;;;;;;11.98;5.32;;;;;;;3.34;76.30;94491.03;4971529;28;20031;-44
2020/12/21 06:51:51;;;;;;;19.55;9.50;;;;;;;3.31;76.24;94481.84;4953896;28;20162;-48
2020/12/21 06:54:17;;;;;;;30.48;15.48;;;;;;;3.26;75.94;94484.47;4952813;28;20527;-47
2020/12/21 06:56:45;;;;;;;30.23;15.25;;;;;;;3.37;75.91;94482.66;4971019;28;20401;-47
2020/12/21 06:59:22;;;;;;;79.03;39.80;;;;;;;3.36;75.53;94478.41;4971125;28;20492;-48
2020/12/21 07:01:49;;;;;;;57.17;31.92;;;;;;;3.39;75.50;94484.88;4952512;28;20019;-49
2020/12/21 07:04:19;;;;;;;19.80;12.05;;;;;;;3.42;75.85;94490.13;4968191;28;20407;-47
2020/12/21 07:06:48;;;;;;;16.55;11.80;;;;;;;3.49;75.50;94491.72;4970705;28;20078;-48
2020/12/21 07:09:15;;;;;;;16.88;11.55;;;;;;;3.51;75.27;94495.47;4965736;28;20037;-44
2020/12/21 07:11:42;;;;;;;12.15;7.47;;;;;;;3.63;74.93;94496.38;4970063;28;20029;-41
2020/12/21 07:14:08;;;;;;;7.07;4.45;;;;;;;3.63;74.72;94490.91;4971995;28;20023;-46
2020/12/21 07:16:33;;;;;;;4.70;2.10;;;;;;;3.56;73.78;94486.59;4963851;28;20424;-41
2020/12/21 07:18:59;;;;;;;9.00;3.65;;;;;;;3.65;73.64;94488.44;4972311;28;20027;-39
2020/12/21 07:21:24;;;;;;;9.20;4.30;;;;;;;3.66;73.39;94493.41;4977598;28;20045;-48
2020/12/21 07:23:50;;;;;;;4.57;3.28;;;;;;;3.67;73.22;94494.19;4972845;28;20018;-41
2020/12/21 07:26:16;;;;;;;8.50;3.80;;;;;;;3.66;72.92;94493.41;4978641;28;20883;-41
2020/12/21 07:28:48;;;;;;;9.20;5.07;;;;;;;3.60;73.77;94495.34;4963413;28;20050;-43
2020/12/21 07:31:18;;;;;;;10.68;5.47;;;;;;;3.78;73.79;94494.31;4980892;28;20030;-47
2020/12/21 07:34:02;;;;;;;9.57;6.13;;;;;;;3.81;73.76;94498.81;4971224;28;20065;-40
2020/12/21 07:36:35;;;;;;;6.72;4.97;;;;;;;3.85;73.19;94500.09;4972700;28;20026;-44
2020/12/21 07:39:13;;;;;;;9.02;5.30;;;;;;;3.89;73.06;94501.88;4973080;28;20023;-45
2020/12/21 07:41:42;;;;;;;12.25;5.65;;;;;;;4.10;72.58;94503.34;4971134;28;20534;-41
2020/12/21 07:44:32;;;;;;;10.68;5.85;;;;;;;4.17;72.08;94498.22;4955098;29;20051;-47
2020/12/21 07:46:57;;;;;;;;;;;;;;;4.17;71.94;94500.94;4958790;28;20591;-46
2020/12/21 07:49:23;;;;;;;12.93;7.05;;;;;;;4.27;70.89;94494.09;4972667;28;19914;-46
2020/12/21 07:51:48;;;;;;;6.82;5.45;;;;;;;4.31;70.22;94496.63;4957063;28;20030;-45
2020/12/21 07:54:14;;;;;;;10.63;5.63;;;;;;;4.30;70.65;94495.09;4972602;28;20027;-46
2020/12/21 07:56:40;;;;;;;10.57;5.45;;;;;;;4.28;70.86;94486.63;4956022;28;20106;-45
2020/12/21 07:59:16;;;;;;;9.80;5.95;;;;;;;4.27;70.53;94496.06;4956672;28;20058;-42
2020/12/21 08:01:42;;;;;;;14.40;8.45;;;;;;;4.23;70.96;94493.53;4973242;28;20058;-40
2020/12/21 08:04:15;;;;;;;13.23;8.00;;;;;;;4.33;71.11;94485.94;4963098;28;20776;-41
2020/12/21 08:06:41;;;;;;;13.65;7.82;;;;;;;4.43;71.77;94485.28;4955597;29;20027;-43
2020/12/21 08:09:07;;;;;;;12.07;7.15;;;;;;;4.44;71.65;94492.25;4955652;29;20020;-40
2020/12/21 08:11:33;;;;;;;11.75;6.88;;;;;;;4.47;71.22;94485.06;4971024;28;20022;-39
2020/12/21 08:14:00;;;;;;;13.30;7.13;;;;;;;4.47;71.41;94493.28;4974940;28;20085;-40
2020/12/21 08:16:26;;;;;;;14.63;7.15;;;;;;;4.61;71.22;94484.94;4957362;28;20037;-40
2020/12/21 08:18:52;;;;;;;10.82;6.40;;;;;;;4.58;70.96;94483.19;4957016;28;20028;-40
2020/12/21 08:21:22;;;;;;;11.18;6.57;;;;;;;4.69;70.90;94488.00;4955588;29;20067;-41
2020/12/21 08:23:54;;;;;;;9.38;5.75;;;;;;;4.61;71.57;94497.88;4955554;29;20106;-41
2020/12/21 08:26:21;;;;;;;8.52;5.00;;;;;;;4.50;71.76;94503.97;4955389;29;20098;-40
2020/12/21 08:28:48;;;;;;;10.73;6.22;;;;;;;4.65;72.19;94503.88;4972285;28;20050;-41
2020/12/21 08:31:24;;;;;;;10.15;6.43;;;;;;;4.77;71.76;94500.00;4974704;28;20026;-44
2020/12/21 08:34:06;;;;;;;12.35;6.55;;;;;;;4.85;71.44;94505.78;4974707;28;20522;-44
2020/12/21 08:36:33;;;;;;;10.43;6.30;;;;;;;4.71;70.79;94514.84;4974408;28;20416;-41
2020/12/21 08:39:11;;;;;;;9.98;6.22;;;;;;;4.33;71.49;94500.34;4973707;28;20103;-39
2020/12/21 08:41:39;;;;;;;15.77;7.72;;;;;;;4.09;72.21;94486.22;4966925;28;20407;-39
2020/12/21 08:44:07;;;;;;;14.27;6.82;;;;;;;4.24;72.19;94486.88;4974467;28;20058;-41
2020/12/21 08:46:32;;;;;;;11.40;6.88;;;;;;;4.41;72.50;94489.75;4952531;29;20417;-43
2020/12/21 08:48:58;;;;;;;15.82;12.15;;;;;;;4.16;70.07;94487.78;4954616;28;20034;-43
2020/12/21 08:51:23;;;;;;;11.35;7.60;;;;;;;4.11;69.59;94494.69;4969071;28;20026;-40
2020/12/21 08:53:49;;;;;;;6.22;4.90;;;;;;;3.87;69.59;94485.22;4973132;28;20507;-40
2020/12/21 08:56:15;;;;;;;13.90;10.00;;;;;;;4.11;69.98;94486.47;4973004;28;20548;-39
2020/12/21 08:58:40;;;;;;;6.28;2.95;;;;;;;3.89;68.88;94490.94;4973009;28;20057;-40
2020/12/21 09:01:07;;;;;;;6.72;3.30;;;;;;;4.11;68.95;94491.19;4973391;28;20491;-39
2020/12/21 09:03:33;;;;;;;10.02;3.90;;;;;;;4.25;68.89;94479.38;4973732;28;20103;-40
2020/12/21 09:05:59;;;;;;;8.05;4.35;;;;;;;4.28;68.06;94484.66;4973583;28;20467;-40
2020/12/21 09:08:24;;;;;;;5.65;3.42;;;;;;;4.43;67.83;94479.06;4970354;28;20035;-40
2020/12/21 09:10:50;;;;;;;6.57;3.70;;;;;;;4.44;69.02;94472.38;4973226;28;20557;-38
2020/12/21 09:13:15;;;;;;;12.63;7.10;;;;;;;4.43;68.24;94473.59;4973499;28;20027;-40
2020/12/21 09:15:40;;;;;;;11.68;6.53;;;;;;;4.37;67.98;94465.38;4973164;28;20060;-38
2020/12/21 09:18:06;;;;;;;9.00;4.78;;;;;;;4.60;67.89;94469.03;4973388;28;20415;-43
2020/12/21 09:20:31;;;;;;;9.13;4.78;;;;;;;4.20;67.78;94458.97;4973303;28;20518;-40
2020/12/21 09:22:57;;;;;;;9.70;5.30;;;;;;;3.97;68.39;94461.97;4973459;28;20479;-39
2020/12/21 09:25:22;;;;;;;8.40;4.53;;;;;;;4.15;69.21;94461.66;4973012;28;20466;-39
2020/12/21 09:27:48;;;;;;;5.10;3.95;;;;;;;4.29;68.95;94463.53;4972894;28;20031;-40
2020/12/21 09:30:13;;;;;;;7.35;4.32;;;;;;;4.42;68.53;94453.72;4972609;28;20030;-41
2020/12/21 09:32:39;;;;;;;7.57;3.60;;;;;;;4.42;68.53;94450.97;4972679;28;20026;-43
2020/12/21 09:35:04;;;;;;;7.57;4.32;;;;;;;4.49;68.12;94450.53;4973186;28;20051;-43
2020/12/21 09:37:30;;;;;;;7.15;3.60;;;;;;;4.60;67.66;94445.16;4973015;28;20030;-42
2020/12/21 09:39:56;;;;;;;9.75;4.70;;;;;;;4.59;67.34;94451.84;4972550;28;20046;-41
2020/12/21 09:42:21;;;;;;;5.82;3.17;;;;;;;4.69;66.74;94448.94;4972530;28;20483;-46
2020/12/21 09:44:49;;;;;;;6.47;3.90;;;;;;;4.77;66.34;94447.25;4970782;28;20018;-42
2020/12/21 09:47:15;;;;;;;6.97;4.05;;;;;;;4.78;66.47;94443.28;4970907;28;20539;-41
2020/12/21 09:49:40;;;;;;;5.25;2.72;;;;;;;4.82;66.68;94444.56;4972780;28;20023;-41
2020/12/21 09:52:06;;;;;;;4.95;3.03;;;;;;;4.85;67.28;94440.84;4962065;28;20518;-41
2020/12/21 09:54:32;;;;;;;5.90;3.85;;;;;;;4.89;67.01;94443.38;4966058;28;20070;-45
2020/12/21 09:56:57;;;;;;;6.47;4.00;;;;;;;4.82;67.25;94446.56;4972624;28;20110;-43
2020/12/21 09:59:23;;;;;;;49.95;23.15;;;;;;;4.76;67.62;94446.53;4972692;28;20036;-42
2020/12/21 10:01:50;;;;;;;9.95;6.18;;;;;;;4.97;67.35;94447.16;4972107;28;20492;-39
2020/12/21 10:04:15;;;;;;;18.55;9.98;;;;;;;5.00;67.53;94441.44;4972377;28;20038;-39
2020/12/21 10:06:46;;;;;;;8.88;5.28;;;;;;;5.12;66.96;94437.53;4971528;28;20022;-41
2020/12/21 10:09:12;;;;;;;8.80;5.07;;;;;;;5.17;67.07;94444.28;4972741;28;20023;-41
2020/12/21 10:11:37;;;;;;;8.30;5.13;;;;;;;5.22;66.90;94436.09;4972683;28;20030;-44
2020/12/21 10:14:03;;;;;;;10.82;5.80;;;;;;;5.17;66.63;94433.34;4972157;28;20031;-42
2020/12/21 10:16:28;;;;;;;12.43;5.97;;;;;;;5.26;66.62;94433.88;4972593;28;20027;-40
2020/12/21 10:18:53;;;;;;;9.80;5.80;;;;;;;5.35;67.01;94430.94;4969184;28;20956;-45
2020/12/21 10:21:19;;;;;;;9.68;5.47;;;;;;;5.51;66.72;94429.50;4971280;28;20027;-44
2020/12/21 10:23:44;;;;;;;7.40;4.65;;;;;;;5.45;66.16;94420.53;4972257;28;20499;-41
2020/12/21 10:26:10;;;;;;;18.05;10.10;;;;;;;5.50;66.87;94411.56;4971332;28;20023;-40
2020/12/21 10:28:35;;;;;;;11.55;6.20;;;;;;;5.61;65.77;94422.56;4972177;28;20074;-40
2020/12/21 10:31:02;;;;;;;6.80;4.25;;;;;;;5.55;64.05;94430.03;4972060;28;20061;-40
2020/12/21 10:33:27;;;;;;;6.47;4.30;;;;;;;5.59;63.72;94424.31;4970770;28;20035;-40
2020/12/21 10:35:52;;;;;;;21.25;12.60;;;;;;;5.57;64.04;94426.78;4961628;28;20401;-40
2020/12/21 10:38:18;;;;;;;19.10;10.10;;;;;;;5.56;64.16;94425.28;4969626;28;20084;-41
2020/12/21 10:40:43;;;;;;;7.00;4.80;;;;;;;5.52;64.69;94414.59;4968961;28;20038;-41
2020/12/21 10:43:09;;;;;;;6.05;3.95;;;;;;;5.60;64.53;94421.09;4968860;28;20038;-41
2020/12/21 10:45:34;;;;;;;7.32;3.63;;;;;;;5.61;64.04;94411.59;4970137;28;20031;-41
2020/12/21 10:48:00;;;;;;;5.43;4.22;;;;;;;5.73;63.19;94402.19;4968377;28;20042;-41
2020/12/21 10:50:25;;;;;;;6.75;3.65;;;;;;;5.38;63.30;94408.06;4970172;28;20033;-42
2020/12/21 10:52:51;;;;;;;10.25;5.18;;;;;;;5.55;63.55;94410.09;4970159;28;20053;-41
2020/12/21 10:55:16;;;;;;;4.93;3.38;;;;;;;5.71;64.46;94401.94;4970331;28;20019;-42
2020/12/21 10:57:41;;;;;;;5.35;3.22;;;;;;;5.77;63.33;94401.94;4970960;28;20078;-42
2020/12/21 11:00:07;;;;;;;6.05;3.40;;;;;;;5.88;63.05;94399.25;4969484;28;20034;-42
2020/12/21 11:02:33;;;;;;;7.95;4.10;;;;;;;5.90;63.59;94392.03;4967382;28;20027;-42
2020/12/21 11:04:58;;;;;;;5.95;4.03;;;;;;;5.93;63.69;94401.28;4969990;28;20117;-42
2020/12/21 11:07:24;;;;;;;7.65;4.47;;;;;;;6.08;63.48;94391.59;4965148;28;20018;-42
2020/12/21 11:09:49;;;;;;;12.60;5.68;;;;;;;6.07;63.69;94384.59;4969245;28;20045;-41
2020/12/21 11:12:15;;;;;;;7.88;4.63;;;;;;;5.95;63.69;94390.56;4971362;28;20558;-42
2020/12/21 11:14:40;;;;;;;5.47;3.67;;;;;;;5.99;62.76;94394.56;4973333;28;20075;-42
2020/12/21 11:17:05;;;;;;;7.32;4.80;;;;;;;6.01;62.80;94383.84;4954103;29;20540;-44
2020/12/21 11:19:31;;;;;;;5.20;3.20;;;;;;;6.00;61.29;94387.81;4969684;28;20027;-42
2020/12/21 11:21:56;;;;;;;4.43;3.15;;;;;;;6.04;61.71;94396.53;4968342;28;20106;-41
2020/12/21 11:24:22;;;;;;;6.03;3.47;;;;;;;6.01;60.94;94392.06;4954949;28;20061;-42
2020/12/21 11:26:53;;;;;;;5.80;3.90;;;;;;;6.00;61.72;94387.06;4974406;28;20101;-41
2020/12/21 11:29:19;;;;;;;5.18;3.80;;;;;;;5.92;62.08;94386.81;4973167;28;20023;-43
2020/12/21 11:31:44;;;;;;;6.90;4.88;;;;;;;5.99;62.49;94372.63;4954492;28;20026;-42
2020/12/21 11:34:09;;;;;;;9.82;4.57;;;;;;;5.95;63.32;94383.09;4971766;28;20440;-43